createdAt,value
2023-03-31T00:00:24.093Z,10.28
2023-03-31T00:05:18.334Z,10.27
2023-03-31T00:10:18.338Z,10.28
2023-03-31T00:15:12.718Z,10.34
2023-03-31T00:20:12.597Z,10.31
2023-03-31T00:25:07.400Z,10.25
2023-03-31T00:30:02.253Z,10.30
2023-03-31T00:34:55.543Z,10.30
2023-03-31T00:39:48.933Z,10.32
2023-03-31T00:45:28.354Z,10.29
2023-03-31T00:50:27.088Z,10.38
2023-03-31T00:55:27.714Z,10.37
2023-03-31T01:00:23.238Z,10.40
2023-03-31T01:05:19.958Z,10.44
2023-03-31T01:10:14.719Z,10.47
2023-03-31T01:15:10.389Z,10.46
2023-03-31T01:20:15.635Z,10.23
2023-03-31T01:26:01.762Z,10.50
2023-03-31T01:31:43.848Z,10.26
2023-03-31T01:37:25.836Z,10.39
2023-03-31T01:42:33.195Z,10.56
2023-03-31T01:47:40.436Z,10.51
2023-03-31T01:52:44.031Z,10.52
2023-03-31T01:57:47.247Z,10.50
2023-03-31T02:02:52.604Z,10.49
2023-03-31T02:07:55.914Z,10.47
2023-03-31T02:12:52.591Z,10.47
2023-03-31T02:17:54.785Z,10.47
2023-03-31T02:22:54.607Z,10.47
2023-03-31T02:27:55.146Z,10.48
2023-03-31T02:32:48.755Z,10.45
2023-03-31T02:37:43.585Z,10.43
2023-03-31T02:42:37.718Z,10.41
2023-03-31T02:47:32.888Z,10.39
2023-03-31T02:52:52.222Z,10.37
2023-03-31T02:58:39.949Z,10.39
2023-03-31T03:03:47.477Z,10.41
2023-03-31T03:09:02.899Z,10.36
2023-03-31T03:14:10.426Z,10.38
2023-03-31T03:19:08.222Z,10.40
2023-03-31T03:24:01.823Z,10.36
2023-03-31T03:28:56.668Z,10.39
2023-03-31T03:33:50.069Z,10.37
2023-03-31T03:38:44.754Z,10.37
2023-03-31T03:43:38.591Z,10.34
2023-03-31T03:48:31.994Z,10.43
2023-03-31T03:53:25.871Z,10.27
2023-03-31T03:58:21.045Z,10.22
2023-03-31T04:03:15.258Z,10.26
2023-03-31T04:08:08.922Z,10.32
2023-03-31T04:13:02.649Z,10.39
2023-03-31T04:17:58.464Z,10.40
2023-03-31T04:22:51.886Z,10.39
2023-03-31T04:27:46.988Z,10.30
2023-03-31T04:32:40.387Z,10.33
2023-03-31T04:37:35.484Z,10.35
2023-03-31T04:42:28.845Z,10.33
2023-03-31T04:47:22.228Z,10.20
2023-03-31T04:52:15.581Z,10.10
2023-03-31T04:57:10.605Z,10.22
2023-03-31T05:02:04.236Z,10.22
2023-03-31T05:06:57.984Z,10.16
2023-03-31T05:11:51.741Z,10.27
2023-03-31T05:16:46.576Z,10.14
2023-03-31T05:21:39.905Z,10.10
2023-03-31T05:26:33.286Z,10.01
2023-03-31T05:31:28.465Z,10.07
2023-03-31T05:36:23.750Z,10.06
2023-03-31T05:41:17.272Z,9.98
2023-03-31T05:46:11.270Z,9.83
2023-03-31T05:51:05.137Z,9.81
2023-03-31T05:56:01.969Z,9.69
2023-03-31T06:01:06.107Z,9.72
2023-03-31T06:05:59.870Z,9.64
2023-03-31T06:10:54.340Z,9.76
2023-03-31T06:15:57.195Z,9.67
2023-03-31T06:20:50.528Z,9.67
2023-03-31T06:25:50.449Z,9.85
2023-03-31T06:30:44.913Z,9.74
2023-03-31T06:35:41.468Z,9.68
2023-03-31T06:40:35.305Z,9.72
2023-03-31T06:45:29.047Z,9.73
2023-03-31T06:50:22.401Z,9.87
2023-03-31T06:55:17.382Z,9.88
2023-03-31T07:00:12.677Z,9.65
2023-03-31T07:05:06.836Z,9.83
2023-03-31T07:10:00.355Z,10.22
2023-03-31T07:20:37.729Z,10.94
2023-03-31T07:25:31.029Z,11.21
2023-03-31T07:30:25.997Z,11.43
2023-03-31T07:35:23.275Z,11.28
2023-03-31T07:40:20.363Z,10.94
2023-03-31T07:45:16.760Z,10.70
2023-03-31T07:50:12.382Z,10.78
2023-03-31T07:55:06.761Z,10.70
2023-03-31T08:00:00.199Z,10.78
2023-03-31T08:04:54.512Z,10.94
2023-03-31T08:10:35.820Z,10.87
2023-03-31T08:16:20.221Z,11.37
2023-03-31T08:21:16.433Z,11.84
2023-03-31T08:26:21.042Z,12.52
2023-03-31T08:31:16.591Z,12.75
2023-03-31T08:36:12.028Z,12.35
2023-03-31T08:41:17.170Z,12.66
2023-03-31T08:46:15.871Z,13.03
2023-03-31T08:51:17.444Z,12.91
2023-03-31T08:56:34.176Z,13.13
2023-03-31T09:01:55.700Z,13.42
2023-03-31T09:07:02.402Z,13.68
2023-03-31T09:12:06.990Z,13.72
2023-03-31T09:17:18.741Z,13.57
2023-03-31T09:22:21.215Z,13.41
2023-03-31T09:27:16.876Z,13.14
2023-03-31T09:32:19.046Z,13.04
2023-03-31T09:37:13.660Z,12.99
2023-03-31T09:42:07.961Z,12.67
2023-03-31T09:47:08.947Z,12.23
2023-03-31T09:52:14.285Z,11.45
2023-03-31T09:57:27.731Z,11.27
2023-03-31T10:02:37.726Z,11.39
2023-03-31T10:07:31.996Z,11.87
2023-03-31T10:12:29.954Z,11.71
2023-03-31T10:22:35.775Z,11.36
2023-03-31T10:27:32.845Z,11.43
2023-03-31T10:32:30.710Z,12.03
2023-03-31T10:37:30.106Z,12.39
2023-03-31T10:42:27.101Z,12.84
2023-03-31T10:47:25.501Z,13.56
2023-03-31T10:52:23.405Z,13.76
2023-03-31T10:57:19.211Z,13.46
2023-03-31T11:02:56.643Z,12.94
2023-03-31T11:08:06.495Z,12.20
2023-03-31T11:13:07.963Z,11.55
2023-03-31T11:18:23.867Z,11.33
2023-03-31T11:23:26.793Z,11.33
2023-03-31T11:28:50.472Z,11.23
2023-03-31T11:34:18.103Z,11.27
2023-03-31T11:39:30.462Z,11.21
2023-03-31T11:44:28.563Z,11.12
2023-03-31T11:49:28.785Z,11.45
2023-03-31T11:54:32.568Z,11.47
2023-03-31T11:59:31.849Z,12.42
2023-03-31T12:04:36.001Z,13.14
2023-03-31T12:09:39.748Z,13.60
2023-03-31T12:14:40.666Z,13.97
2023-03-31T12:19:48.004Z,14.28
2023-03-31T12:24:41.468Z,14.35
2023-03-31T12:29:40.693Z,14.51
2023-03-31T12:34:39.960Z,14.03
2023-03-31T12:39:51.799Z,13.81
2023-03-31T12:45:01.023Z,13.33
2023-03-31T12:50:37.356Z,11.75
2023-03-31T12:55:41.326Z,11.24
2023-03-31T13:00:35.486Z,11.33
2023-03-31T13:05:49.828Z,11.70
2023-03-31T13:10:59.694Z,12.16
2023-03-31T13:15:57.236Z,12.72
2023-03-31T13:21:01.008Z,13.02
2023-03-31T13:25:55.755Z,12.94
2023-03-31T13:30:54.047Z,12.77
2023-03-31T13:35:54.029Z,12.70
2023-03-31T13:41:06.863Z,12.63
2023-03-31T13:46:26.563Z,12.51
2023-03-31T13:51:49.087Z,12.48
2023-03-31T13:57:15.388Z,12.45
2023-03-31T14:07:58.144Z,12.54
2023-03-31T14:12:53.424Z,12.57
2023-03-31T14:17:47.044Z,12.70
2023-03-31T14:22:53.291Z,12.60
2023-03-31T14:28:05.414Z,12.63
2023-03-31T14:33:19.578Z,12.91
2023-03-31T14:38:21.024Z,12.94
2023-03-31T14:43:23.142Z,12.76
2023-03-31T14:48:17.503Z,12.71
2023-03-31T14:53:17.036Z,12.77
2023-03-31T14:58:23.411Z,13.07
2023-03-31T15:03:20.305Z,13.21
2023-03-31T15:19:00.164Z,12.59
2023-03-31T15:23:57.202Z,11.83
2023-03-31T15:28:58.569Z,9.80
2023-03-31T15:33:56.369Z,9.41
2023-03-31T15:38:59.135Z,9.39
2023-03-31T15:44:09.210Z,9.64
2023-03-31T15:49:03.311Z,9.64
2023-03-31T15:53:58.094Z,9.73
2023-03-31T15:59:00.851Z,9.95
2023-03-31T16:03:56.454Z,10.09
2023-03-31T16:08:58.390Z,10.25
2023-03-31T16:13:59.430Z,10.27
2023-03-31T16:18:58.058Z,10.05
2023-03-31T16:23:58.305Z,10.13
2023-03-31T16:28:57.544Z,9.98
2023-03-31T16:33:57.624Z,9.92
2023-03-31T16:38:53.912Z,9.76
2023-03-31T16:43:47.445Z,9.93
2023-03-31T16:48:42.166Z,10.01
2023-03-31T16:53:37.213Z,10.01
2023-03-31T16:58:31.723Z,9.92
2023-03-31T17:03:25.618Z,10.09
2023-03-31T17:08:22.968Z,10.08
2023-03-31T17:13:16.265Z,10.14
2023-03-31T17:18:09.831Z,9.83
2023-03-31T17:23:04.349Z,9.94
2023-03-31T17:28:00.682Z,10.03
2023-03-31T17:32:54.293Z,9.91
2023-03-31T17:37:47.823Z,10.01
2023-03-31T17:42:41.214Z,10.03
2023-03-31T17:47:36.115Z,9.95
2023-03-31T17:52:29.668Z,9.92
2023-03-31T17:57:23.070Z,10.03
2023-03-31T18:02:16.481Z,9.95
2023-03-31T18:08:30.976Z,9.48
2023-03-31T18:13:37.509Z,9.65
2023-03-31T18:38:08.707Z,9.46
2023-03-31T18:43:23.892Z,9.35
2023-03-31T18:48:50.485Z,9.38
2023-03-31T18:53:53.137Z,9.40
2023-03-31T18:59:15.336Z,9.27
2023-03-31T19:11:56.228Z,9.17
2023-03-31T19:23:35.368Z,9.02
2023-03-31T19:28:31.648Z,9.36
2023-03-31T19:33:26.068Z,9.25
2023-03-31T19:39:07.421Z,9.07
2023-03-31T19:44:03.578Z,8.90
2023-03-31T19:48:57.118Z,8.96
2023-03-31T19:53:50.624Z,8.90
2023-03-31T19:59:03.631Z,8.97
2023-03-31T20:04:02.664Z,9.16
2023-03-31T20:09:00.039Z,9.18
2023-03-31T20:13:53.681Z,9.13
2023-03-31T20:18:54.499Z,9.24
2023-03-31T20:23:52.793Z,9.23
2023-03-31T20:34:19.104Z,9.20
2023-03-31T20:39:21.892Z,9.11
2023-03-31T20:44:32.478Z,9.12
2023-03-31T20:49:29.922Z,9.23
2023-03-31T20:54:23.510Z,9.12
2023-03-31T20:59:17.244Z,9.13
2023-03-31T21:04:12.264Z,9.18
2023-03-31T21:09:07.660Z,9.20
2023-03-31T21:14:03.805Z,9.05
2023-03-31T21:19:00.006Z,9.15
2023-03-31T21:23:54.296Z,9.07
2023-03-31T21:28:54.436Z,9.06
2023-03-31T21:33:54.593Z,9.01
2023-03-31T21:38:49.362Z,8.99
2023-03-31T21:43:43.758Z,9.11
2023-03-31T21:48:40.736Z,9.01
2023-03-31T21:53:34.281Z,9.14
2023-03-31T21:58:30.452Z,9.07
2023-03-31T22:03:28.793Z,9.21
2023-03-31T22:08:23.898Z,9.13
2023-03-31T22:13:17.729Z,9.17
2023-03-31T22:18:11.647Z,9.06
2023-03-31T22:23:05.511Z,9.17
2023-03-31T22:28:00.540Z,9.12
2023-03-31T22:32:55.036Z,9.14
2023-03-31T22:37:51.676Z,9.17
2023-03-31T22:42:45.077Z,9.08
2023-03-31T22:47:42.234Z,9.06
2023-03-31T22:52:36.025Z,9.11
2023-03-31T22:57:30.792Z,9.01
2023-03-31T23:02:24.285Z,8.93
2023-03-31T23:07:21.846Z,9.07
2023-03-31T23:12:21.701Z,8.91
2023-03-31T23:17:17.800Z,8.98
2023-03-31T23:22:11.565Z,9.14
2023-03-31T23:27:06.554Z,9.02
2023-03-31T23:32:05.789Z,9.00
2023-03-31T23:36:59.253Z,8.84
2023-03-31T23:41:53.493Z,9.08
2023-03-31T23:46:48.363Z,9.03
2023-03-31T23:51:41.827Z,8.95
2023-03-31T23:56:35.542Z,8.66
